sensor_id;sensor_type;location;lat;lon;timestamp;temperature;humidity
2855;DHT22;1435;49.472;10.940;2022-08-01T00:03:40;22.60;91.40
2855;DHT22;1435;49.472;10.940;2022-08-01T00:08:42;22.60;91.50
2855;DHT22;1435;49.472;10.940;2022-08-01T00:13:45;22.50;91.50
2855;DHT22;1435;49.472;10.940;2022-08-01T00:18:47;22.50;91.60
2855;DHT22;1435;49.472;10.940;2022-08-01T00:23:48;22.50;91.80
2855;DHT22;1435;49.472;10.940;2022-08-01T00:28:51;22.40;92.10
2855;DHT22;1435;49.472;10.940;2022-08-01T00:33:53;22.40;92.00
2855;DHT22;1435;49.472;10.940;2022-08-01T00:38:54;22.30;92.10
2855;DHT22;1435;49.472;10.940;2022-08-01T00:43:57;22.30;92.20
2855;DHT22;1435;49.472;10.940;2022-08-01T00:48:59;22.30;92.30
2855;DHT22;1435;49.472;10.940;2022-08-01T00:54:01;22.10;92.40
2855;DHT22;1435;49.472;10.940;2022-08-01T00:59:04;22.20;92.40
2855;DHT22;1435;49.472;10.940;2022-08-01T01:04:06;22.10;92.50
2855;DHT22;1435;49.472;10.940;2022-08-01T01:09:21;22.10;92.30
2855;DHT22;1435;49.472;10.940;2022-08-01T01:14:30;22.10;92.40
2855;DHT22;1435;49.472;10.940;2022-08-01T01:19:33;22.10;92.60
2855;DHT22;1435;49.472;10.940;2022-08-01T01:24:46;22.00;92.80
2855;DHT22;1435;49.472;10.940;2022-08-01T01:29:56;22.00;92.70
2855;DHT22;1435;49.472;10.940;2022-08-01T01:34:59;21.80;92.70
2855;DHT22;1435;49.472;10.940;2022-08-01T01:40:02;21.70;93.20
2855;DHT22;1435;49.472;10.940;2022-08-01T01:45:07;21.60;93.40
2855;DHT22;1435;49.472;10.940;2022-08-01T01:50:11;21.70;93.70
2855;DHT22;1435;49.472;10.940;2022-08-01T01:55:14;21.60;93.90
2855;DHT22;1435;49.472;10.940;2022-08-01T02:00:18;21.60;94.00
2855;DHT22;1435;49.472;10.940;2022-08-01T02:05:20;21.60;94.30
2855;DHT22;1435;49.472;10.940;2022-08-01T02:10:23;21.60;94.50
2855;DHT22;1435;49.472;10.940;2022-08-01T02:15:27;21.70;94.60
2855;DHT22;1435;49.472;10.940;2022-08-01T02:20:30;21.70;94.60
2855;DHT22;1435;49.472;10.940;2022-08-01T02:25:36;21.70;94.90
2855;DHT22;1435;49.472;10.940;2022-08-01T02:30:46;21.70;95.20
2855;DHT22;1435;49.472;10.940;2022-08-01T02:35:51;21.70;95.20
2855;DHT22;1435;49.472;10.940;2022-08-01T02:40:56;21.70;95.50
2855;DHT22;1435;49.472;10.940;2022-08-01T02:46:02;21.80;95.60
2855;DHT22;1435;49.472;10.940;2022-08-01T02:51:06;21.80;95.90
2855;DHT22;1435;49.472;10.940;2022-08-01T02:56:10;21.80;96.10
2855;DHT22;1435;49.472;10.940;2022-08-01T03:01:15;21.70;96.40
2855;DHT22;1435;49.472;10.940;2022-08-01T03:06:18;21.70;96.50
2855;DHT22;1435;49.472;10.940;2022-08-01T03:11:20;21.70;96.70
2855;DHT22;1435;49.472;10.940;2022-08-01T03:16:26;21.60;97.00
2855;DHT22;1435;49.472;10.940;2022-08-01T03:21:29;21.60;97.10
2855;DHT22;1435;49.472;10.940;2022-08-01T03:26:35;21.60;97.50
2855;DHT22;1435;49.472;10.940;2022-08-01T03:31:39;21.50;97.80
2855;DHT22;1435;49.472;10.940;2022-08-01T03:36:46;21.50;98.00
2855;DHT22;1435;49.472;10.940;2022-08-01T03:41:53;21.50;98.30
2855;DHT22;1435;49.472;10.940;2022-08-01T03:47:04;21.50;98.70
2855;DHT22;1435;49.472;10.940;2022-08-01T03:52:07;21.50;98.90
2855;DHT22;1435;49.472;10.940;2022-08-01T03:57:10;21.20;99.90
2855;DHT22;1435;49.472;10.940;2022-08-01T04:02:14;21.20;99.90
2855;DHT22;1435;49.472;10.940;2022-08-01T04:07:23;21.30;99.90
2855;DHT22;1435;49.472;10.940;2022-08-01T04:12:25;21.30;99.90
2855;DHT22;1435;49.472;10.940;2022-08-01T04:17:28;21.20;99.90
2855;DHT22;1435;49.472;10.940;2022-08-01T04:22:30;21.10;99.90
2855;DHT22;1435;49.472;10.940;2022-08-01T04:27:36;21.20;99.90
2855;DHT22;1435;49.472;10.940;2022-08-01T04:32:41;21.20;99.90
2855;DHT22;1435;49.472;10.940;2022-08-01T04:37:47;21.20;99.90
2855;DHT22;1435;49.472;10.940;2022-08-01T04:42:51;21.30;99.90
2855;DHT22;1435;49.472;10.940;2022-08-01T04:47:54;21.30;99.90
2855;DHT22;1435;49.472;10.940;2022-08-01T04:53:00;21.20;99.90
2855;DHT22;1435;49.472;10.940;2022-08-01T04:58:03;21.20;99.90
2855;DHT22;1435;49.472;10.940;2022-08-01T05:03:06;21.20;99.90
2855;DHT22;1435;49.472;10.940;2022-08-01T05:08:09;21.30;99.90
2855;DHT22;1435;49.472;10.940;2022-08-01T05:13:10;21.30;99.90
2855;DHT22;1435;49.472;10.940;2022-08-01T05:18:13;21.20;99.90
2855;DHT22;1435;49.472;10.940;2022-08-01T05:23:15;21.30;99.90
2855;DHT22;1435;49.472;10.940;2022-08-01T05:28:18;21.40;99.90
2855;DHT22;1435;49.472;10.940;2022-08-01T05:33:21;21.40;99.90
2855;DHT22;1435;49.472;10.940;2022-08-01T05:38:23;21.40;99.90
2855;DHT22;1435;49.472;10.940;2022-08-01T05:43:24;21.40;99.90
2855;DHT22;1435;49.472;10.940;2022-08-01T05:48:27;21.40;99.90
2855;DHT22;1435;49.472;10.940;2022-08-01T05:53:29;21.50;99.90
2855;DHT22;1435;49.472;10.940;2022-08-01T05:58:34;21.50;99.90
2855;DHT22;1435;49.472;10.940;2022-08-01T06:03:37;21.40;99.90
2855;DHT22;1435;49.472;10.940;2022-08-01T06:08:39;21.50;99.90
2855;DHT22;1435;49.472;10.940;2022-08-01T06:13:41;21.50;99.90
2855;DHT22;1435;49.472;10.940;2022-08-01T06:18:44;21.50;99.90
2855;DHT22;1435;49.472;10.940;2022-08-01T06:23:45;21.60;99.90
2855;DHT22;1435;49.472;10.940;2022-08-01T06:28:47;21.60;99.90
2855;DHT22;1435;49.472;10.940;2022-08-01T06:33:50;21.70;99.90
2855;DHT22;1435;49.472;10.940;2022-08-01T06:38:52;21.70;99.90
2855;DHT22;1435;49.472;10.940;2022-08-01T06:43:53;21.70;99.90
2855;DHT22;1435;49.472;10.940;2022-08-01T06:48:56;21.80;99.90
2855;DHT22;1435;49.472;10.940;2022-08-01T06:53:58;21.70;99.90
2855;DHT22;1435;49.472;10.940;2022-08-01T06:59:00;21.80;99.90
2855;DHT22;1435;49.472;10.940;2022-08-01T07:04:03;21.80;99.90
2855;DHT22;1435;49.472;10.940;2022-08-01T07:09:05;21.80;99.90
2855;DHT22;1435;49.472;10.940;2022-08-01T07:14:07;21.80;99.90
2855;DHT22;1435;49.472;10.940;2022-08-01T07:19:10;21.90;99.90
2855;DHT22;1435;49.472;10.940;2022-08-01T07:24:13;21.90;99.90
2855;DHT22;1435;49.472;10.940;2022-08-01T07:29:15;22.00;99.90
2855;DHT22;1435;49.472;10.940;2022-08-01T07:34:18;22.10;99.90
2855;DHT22;1435;49.472;10.940;2022-08-01T07:39:20;22.10;99.90
2855;DHT22;1435;49.472;10.940;2022-08-01T07:44:22;22.10;99.90
2855;DHT22;1435;49.472;10.940;2022-08-01T07:49:25;22.20;99.90
2855;DHT22;1435;49.472;10.940;2022-08-01T07:54:27;22.30;99.90
2855;DHT22;1435;49.472;10.940;2022-08-01T07:59:29;22.30;99.90
2855;DHT22;1435;49.472;10.940;2022-08-01T08:04:32;22.40;99.90
2855;DHT22;1435;49.472;10.940;2022-08-01T08:09:34;22.40;99.90
2855;DHT22;1435;49.472;10.940;2022-08-01T08:14:36;22.40;99.90
2855;DHT22;1435;49.472;10.940;2022-08-01T08:19:39;22.50;99.90
2855;DHT22;1435;49.472;10.940;2022-08-01T08:24:40;22.50;99.90
2855;DHT22;1435;49.472;10.940;2022-08-01T08:29:42;22.60;99.90
2855;DHT22;1435;49.472;10.940;2022-08-01T08:34:45;22.70;99.90
2855;DHT22;1435;49.472;10.940;2022-08-01T08:39:47;22.80;99.90
2855;DHT22;1435;49.472;10.940;2022-08-01T08:44:48;22.80;99.90
2855;DHT22;1435;49.472;10.940;2022-08-01T08:49:53;22.90;99.90
2855;DHT22;1435;49.472;10.940;2022-08-01T08:54:55;22.90;99.90
2855;DHT22;1435;49.472;10.940;2022-08-01T08:59:57;22.90;99.90
2855;DHT22;1435;49.472;10.940;2022-08-01T09:05:01;23.00;99.90
2855;DHT22;1435;49.472;10.940;2022-08-01T09:10:04;23.00;99.90
2855;DHT22;1435;49.472;10.940;2022-08-01T09:15:06;23.00;99.90
2855;DHT22;1435;49.472;10.940;2022-08-01T09:20:22;23.10;99.90
2855;DHT22;1435;49.472;10.940;2022-08-01T09:25:24;23.10;99.90
2855;DHT22;1435;49.472;10.940;2022-08-01T09:30:37;23.10;99.90
2855;DHT22;1435;49.472;10.940;2022-08-01T09:35:41;23.20;99.90
2855;DHT22;1435;49.472;10.940;2022-08-01T09:40:49;23.20;99.90
2855;DHT22;1435;49.472;10.940;2022-08-01T09:45:51;23.30;99.90
2855;DHT22;1435;49.472;10.940;2022-08-01T09:50:56;23.30;99.90
2855;DHT22;1435;49.472;10.940;2022-08-01T09:56:09;23.30;99.90
2855;DHT22;1435;49.472;10.940;2022-08-01T10:01:11;23.40;99.90
2855;DHT22;1435;49.472;10.940;2022-08-01T10:06:21;23.60;99.90
2855;DHT22;1435;49.472;10.940;2022-08-01T10:11:23;23.60;99.90
2855;DHT22;1435;49.472;10.940;2022-08-01T10:16:27;23.70;99.90
2855;DHT22;1435;49.472;10.940;2022-08-01T10:21:32;23.70;99.90
2855;DHT22;1435;49.472;10.940;2022-08-01T10:26:35;23.70;99.90
2855;DHT22;1435;49.472;10.940;2022-08-01T10:31:37;23.90;99.90
2855;DHT22;1435;49.472;10.940;2022-08-01T10:36:41;23.90;99.90
2855;DHT22;1435;49.472;10.940;2022-08-01T10:41:43;24.00;99.90
2855;DHT22;1435;49.472;10.940;2022-08-01T10:46:48;24.10;99.70
2855;DHT22;1435;49.472;10.940;2022-08-01T10:51:53;24.10;99.00
2855;DHT22;1435;49.472;10.940;2022-08-01T10:56:59;24.30;99.70
2855;DHT22;1435;49.472;10.940;2022-08-01T11:02:02;24.30;98.80
2855;DHT22;1435;49.472;10.940;2022-08-01T11:07:07;24.40;98.80
2855;DHT22;1435;49.472;10.940;2022-08-01T11:12:10;24.50;98.60
2855;DHT22;1435;49.472;10.940;2022-08-01T11:17:32;24.60;98.70
2855;DHT22;1435;49.472;10.940;2022-08-01T11:28:21;24.70;98.30
2855;DHT22;1435;49.472;10.940;2022-08-01T11:33:47;24.70;97.80
2855;DHT22;1435;49.472;10.940;2022-08-01T11:44:10;24.90;97.20
2855;DHT22;1435;49.472;10.940;2022-08-01T11:49:26;24.90;96.70
2855;DHT22;1435;49.472;10.940;2022-08-01T11:54:30;25.00;97.20
2855;DHT22;1435;49.472;10.940;2022-08-01T11:59:38;25.10;96.50
2855;DHT22;1435;49.472;10.940;2022-08-01T12:04:48;25.20;96.30
2855;DHT22;1435;49.472;10.940;2022-08-01T12:09:58;25.30;95.90
2855;DHT22;1435;49.472;10.940;2022-08-01T12:15:04;25.30;95.70
2855;DHT22;1435;49.472;10.940;2022-08-01T12:20:09;25.20;95.70
2855;DHT22;1435;49.472;10.940;2022-08-01T12:25:12;25.30;95.80
2855;DHT22;1435;49.472;10.940;2022-08-01T12:30:17;25.30;95.80
2855;DHT22;1435;49.472;10.940;2022-08-01T12:35:21;25.40;95.40
2855;DHT22;1435;49.472;10.940;2022-08-01T12:40:25;25.60;94.50
2855;DHT22;1435;49.472;10.940;2022-08-01T12:45:30;25.70;93.90
2855;DHT22;1435;49.472;10.940;2022-08-01T12:50:33;25.70;93.40
2855;DHT22;1435;49.472;10.940;2022-08-01T12:55:44;25.70;93.10
2855;DHT22;1435;49.472;10.940;2022-08-01T13:00:48;25.70;92.20
2855;DHT22;1435;49.472;10.940;2022-08-01T13:05:52;25.80;93.80
2855;DHT22;1435;49.472;10.940;2022-08-01T13:11:01;25.80;94.90
2855;DHT22;1435;49.472;10.940;2022-08-01T13:16:07;25.80;94.90
2855;DHT22;1435;49.472;10.940;2022-08-01T13:21:11;25.90;94.50
2855;DHT22;1435;49.472;10.940;2022-08-01T13:26:13;25.90;93.10
2855;DHT22;1435;49.472;10.940;2022-08-01T13:31:16;25.90;92.70
2855;DHT22;1435;49.472;10.940;2022-08-01T13:36:18;25.90;92.00
2855;DHT22;1435;49.472;10.940;2022-08-01T13:41:20;25.90;91.80
2855;DHT22;1435;49.472;10.940;2022-08-01T13:46:23;25.90;91.90
2855;DHT22;1435;49.472;10.940;2022-08-01T13:51:25;25.90;91.50
2855;DHT22;1435;49.472;10.940;2022-08-01T13:56:27;26.00;90.60
2855;DHT22;1435;49.472;10.940;2022-08-01T14:01:30;26.00;90.30
2855;DHT22;1435;49.472;10.940;2022-08-01T14:06:32;26.00;90.40
2855;DHT22;1435;49.472;10.940;2022-08-01T14:11:33;26.10;90.30
2855;DHT22;1435;49.472;10.940;2022-08-01T14:16:36;26.20;90.30
2855;DHT22;1435;49.472;10.940;2022-08-01T14:21:39;26.30;90.20
2855;DHT22;1435;49.472;10.940;2022-08-01T14:26:41;26.30;90.50
2855;DHT22;1435;49.472;10.940;2022-08-01T14:31:44;26.50;90.70
2855;DHT22;1435;49.472;10.940;2022-08-01T14:36:46;26.60;85.90
2855;DHT22;1435;49.472;10.940;2022-08-01T14:41:47;26.70;87.00
2855;DHT22;1435;49.472;10.940;2022-08-01T14:46:50;26.90;86.70
2855;DHT22;1435;49.472;10.940;2022-08-01T14:51:52;27.00;85.20
2855;DHT22;1435;49.472;10.940;2022-08-01T14:56:54;27.00;84.50
2855;DHT22;1435;49.472;10.940;2022-08-01T15:01:57;26.90;84.40
2855;DHT22;1435;49.472;10.940;2022-08-01T15:06:59;26.90;85.40
2855;DHT22;1435;49.472;10.940;2022-08-01T15:12:00;27.00;85.50
2855;DHT22;1435;49.472;10.940;2022-08-01T15:17:03;27.00;83.80
2855;DHT22;1435;49.472;10.940;2022-08-01T15:22:05;26.90;82.30
2855;DHT22;1435;49.472;10.940;2022-08-01T15:27:07;27.00;83.40
2855;DHT22;1435;49.472;10.940;2022-08-01T15:32:10;27.10;83.00
2855;DHT22;1435;49.472;10.940;2022-08-01T15:37:13;27.20;82.20
2855;DHT22;1435;49.472;10.940;2022-08-01T15:42:16;27.20;81.50
2855;DHT22;1435;49.472;10.940;2022-08-01T15:47:19;27.20;81.10
2855;DHT22;1435;49.472;10.940;2022-08-01T15:52:21;27.20;81.70
2855;DHT22;1435;49.472;10.940;2022-08-01T15:57:22;27.10;82.20
2855;DHT22;1435;49.472;10.940;2022-08-01T16:02:25;27.10;81.00
2855;DHT22;1435;49.472;10.940;2022-08-01T16:07:27;27.10;80.40
2855;DHT22;1435;49.472;10.940;2022-08-01T16:12:29;27.10;80.30
2855;DHT22;1435;49.472;10.940;2022-08-01T16:17:32;27.20;81.00
2855;DHT22;1435;49.472;10.940;2022-08-01T16:22:34;27.20;82.30
2855;DHT22;1435;49.472;10.940;2022-08-01T16:27:36;27.20;82.00
2855;DHT22;1435;49.472;10.940;2022-08-01T16:32:39;27.30;82.90
2855;DHT22;1435;49.472;10.940;2022-08-01T16:37:40;27.30;83.00
2855;DHT22;1435;49.472;10.940;2022-08-01T16:42:42;27.50;82.70
2855;DHT22;1435;49.472;10.940;2022-08-01T16:47:45;27.40;84.30
2855;DHT22;1435;49.472;10.940;2022-08-01T16:52:47;27.40;84.50
2855;DHT22;1435;49.472;10.940;2022-08-01T16:57:49;27.40;85.10
2855;DHT22;1435;49.472;10.940;2022-08-01T17:02:52;27.30;85.90
2855;DHT22;1435;49.472;10.940;2022-08-01T17:07:54;27.20;86.90
2855;DHT22;1435;49.472;10.940;2022-08-01T17:12:56;27.20;86.50
2855;DHT22;1435;49.472;10.940;2022-08-01T17:17:59;27.10;86.80
2855;DHT22;1435;49.472;10.940;2022-08-01T17:23:01;27.00;86.60
2855;DHT22;1435;49.472;10.940;2022-08-01T17:28:03;27.00;86.90
2855;DHT22;1435;49.472;10.940;2022-08-01T17:33:06;27.00;87.00
2855;DHT22;1435;49.472;10.940;2022-08-01T17:38:08;26.90;87.50
2855;DHT22;1435;49.472;10.940;2022-08-01T17:43:09;26.90;87.50
2855;DHT22;1435;49.472;10.940;2022-08-01T17:48:12;26.90;87.80
2855;DHT22;1435;49.472;10.940;2022-08-01T17:53:16;26.90;88.20
2855;DHT22;1435;49.472;10.940;2022-08-01T17:58:18;26.80;88.20
2855;DHT22;1435;49.472;10.940;2022-08-01T18:03:21;26.80;89.10
2855;DHT22;1435;49.472;10.940;2022-08-01T18:08:23;26.80;88.60
2855;DHT22;1435;49.472;10.940;2022-08-01T18:13:26;26.70;89.10
2855;DHT22;1435;49.472;10.940;2022-08-01T18:18:29;26.70;90.00
2855;DHT22;1435;49.472;10.940;2022-08-01T18:23:31;26.70;90.00
2855;DHT22;1435;49.472;10.940;2022-08-01T18:28:34;26.70;90.20
2855;DHT22;1435;49.472;10.940;2022-08-01T18:33:39;26.60;90.50
2855;DHT22;1435;49.472;10.940;2022-08-01T18:38:41;26.60;90.90
2855;DHT22;1435;49.472;10.940;2022-08-01T18:43:42;26.50;91.10
2855;DHT22;1435;49.472;10.940;2022-08-01T18:48:45;26.50;91.40
2855;DHT22;1435;49.472;10.940;2022-08-01T18:53:47;26.40;91.50
2855;DHT22;1435;49.472;10.940;2022-08-01T18:58:52;26.30;91.90
2855;DHT22;1435;49.472;10.940;2022-08-01T19:03:55;26.20;92.20
2855;DHT22;1435;49.472;10.940;2022-08-01T19:08:57;26.10;92.70
2855;DHT22;1435;49.472;10.940;2022-08-01T19:14:00;25.90;92.90
2855;DHT22;1435;49.472;10.940;2022-08-01T19:19:05;25.70;93.20
2855;DHT22;1435;49.472;10.940;2022-08-01T19:24:08;25.70;93.40
2855;DHT22;1435;49.472;10.940;2022-08-01T19:29:22;25.50;93.90
2855;DHT22;1435;49.472;10.940;2022-08-01T19:34:27;25.20;94.10
2855;DHT22;1435;49.472;10.940;2022-08-01T19:39:28;25.20;94.30
2855;DHT22;1435;49.472;10.940;2022-08-01T19:44:30;25.10;94.50
2855;DHT22;1435;49.472;10.940;2022-08-01T19:49:35;25.00;94.40
2855;DHT22;1435;49.472;10.940;2022-08-01T19:54:42;24.80;94.80
2855;DHT22;1435;49.472;10.940;2022-08-01T19:59:45;24.60;95.10
2855;DHT22;1435;49.472;10.940;2022-08-01T20:04:49;24.50;95.40
2855;DHT22;1435;49.472;10.940;2022-08-01T20:09:51;24.40;95.60
2855;DHT22;1435;49.472;10.940;2022-08-01T20:14:52;24.20;95.90
2855;DHT22;1435;49.472;10.940;2022-08-01T20:19:56;24.20;96.10
2855;DHT22;1435;49.472;10.940;2022-08-01T20:24:58;24.10;96.20
2855;DHT22;1435;49.472;10.940;2022-08-01T20:30:00;23.90;96.50
2855;DHT22;1435;49.472;10.940;2022-08-01T20:35:04;23.90;96.70
2855;DHT22;1435;49.472;10.940;2022-08-01T20:40:11;23.70;96.80
2855;DHT22;1435;49.472;10.940;2022-08-01T20:45:15;23.70;97.00
2855;DHT22;1435;49.472;10.940;2022-08-01T20:50:19;23.50;97.60
2855;DHT22;1435;49.472;10.940;2022-08-01T20:55:44;23.30;98.00
2855;DHT22;1435;49.472;10.940;2022-08-01T21:00:48;23.20;98.10
2855;DHT22;1435;49.472;10.940;2022-08-01T21:05:55;23.20;98.20
2855;DHT22;1435;49.472;10.940;2022-08-01T21:11:01;23.10;98.40
2855;DHT22;1435;49.472;10.940;2022-08-01T21:16:07;23.00;98.50
2855;DHT22;1435;49.472;10.940;2022-08-01T21:21:15;22.80;99.00
2855;DHT22;1435;49.472;10.940;2022-08-01T21:26:19;22.80;99.20
2855;DHT22;1435;49.472;10.940;2022-08-01T21:31:22;22.70;99.40
2855;DHT22;1435;49.472;10.940;2022-08-01T21:36:27;22.70;99.60
2855;DHT22;1435;49.472;10.940;2022-08-01T21:41:29;22.60;99.80
2855;DHT22;1435;49.472;10.940;2022-08-01T21:46:32;22.50;99.90
2855;DHT22;1435;49.472;10.940;2022-08-01T21:51:42;22.40;99.90
2855;DHT22;1435;49.472;10.940;2022-08-01T21:56:50;22.40;99.90
2855;DHT22;1435;49.472;10.940;2022-08-01T22:02:01;22.30;99.90
2855;DHT22;1435;49.472;10.940;2022-08-01T22:07:08;22.30;99.90
2855;DHT22;1435;49.472;10.940;2022-08-01T22:12:11;22.20;99.90
2855;DHT22;1435;49.472;10.940;2022-08-01T22:17:16;22.00;99.90
2855;DHT22;1435;49.472;10.940;2022-08-01T22:22:21;22.10;99.90
2855;DHT22;1435;49.472;10.940;2022-08-01T22:27:23;21.90;99.90
2855;DHT22;1435;49.472;10.940;2022-08-01T22:32:26;21.90;99.90
2855;DHT22;1435;49.472;10.940;2022-08-01T22:37:30;21.90;99.90
2855;DHT22;1435;49.472;10.940;2022-08-01T22:42:37;21.80;99.90
2855;DHT22;1435;49.472;10.940;2022-08-01T22:47:48;21.70;99.90
2855;DHT22;1435;49.472;10.940;2022-08-01T22:52:59;21.70;99.90
2855;DHT22;1435;49.472;10.940;2022-08-01T22:58:03;21.60;99.90
2855;DHT22;1435;49.472;10.940;2022-08-01T23:03:12;21.50;99.90
2855;DHT22;1435;49.472;10.940;2022-08-01T23:08:17;21.40;99.90
2855;DHT22;1435;49.472;10.940;2022-08-01T23:13:20;21.30;99.90
2855;DHT22;1435;49.472;10.940;2022-08-01T23:18:23;21.20;99.90
2855;DHT22;1435;49.472;10.940;2022-08-01T23:23:26;21.10;99.90
2855;DHT22;1435;49.472;10.940;2022-08-01T23:28:28;21.00;99.90
2855;DHT22;1435;49.472;10.940;2022-08-01T23:33:30;20.90;99.90
2855;DHT22;1435;49.472;10.940;2022-08-01T23:38:33;20.80;99.90
2855;DHT22;1435;49.472;10.940;2022-08-01T23:43:35;20.70;99.90
2855;DHT22;1435;49.472;10.940;2022-08-01T23:48:37;20.70;99.90
2855;DHT22;1435;49.472;10.940;2022-08-01T23:53:40;20.70;99.90
2855;DHT22;1435;49.472;10.940;2022-08-01T23:58:42;20.60;99.90
